Time;durP1;ratioP1;P1;durP2;ratioP2;P2;SDS_P1;SDS_P2;PMS_P1;PMS_P2;Temp;Humidity;BMP_temperature;BMP_pressure;BME280_temperature;BME280_humidity;BME280_pressure;Samples;Min_cycle;Max_cycle;Signal;HPM_P1;HPM_P2
2023/06/20 00:00:50;;;;;;;44.72;40.40;;;17.60;93.10;;;;;;5022158;28;20116;-63
2023/06/20 00:03:16;;;;;;;45.47;41.28;;;17.60;93.60;;;;;;5011305;28;20064;-63
2023/06/20 00:05:42;;;;;;;45.08;41.08;;;17.50;83.10;;;;;;5016278;28;20156;-63
2023/06/20 00:08:08;;;;;;;46.22;41.90;;;17.60;52.90;;;;;;5046079;28;20144;-63
2023/06/20 00:10:33;;;;;;;46.10;41.63;;;17.50;5.10;;;;;;5031474;28;20035;-63
2023/06/20 00:12:59;;;;;;;47.00;42.60;;;17.40;1.00;;;;;;5030897;28;20052;-63
2023/06/20 00:15:26;;;;;;;48.22;43.60;;;17.50;1.00;;;;;;5030417;28;20075;-63
2023/06/20 00:17:59;;;;;;;47.13;42.95;;;17.50;99.90;;;;;;5028513;28;20045;-63
2023/06/20 00:20:25;;;;;;;45.40;41.22;;;17.70;99.90;;;;;;5029760;28;20068;-63
2023/06/20 00:22:51;;;;;;;44.42;40.33;;;17.60;99.90;;;;;;5034266;28;20056;-63
2023/06/20 00:25:17;;;;;;;42.85;38.60;;;17.70;84.60;;;;;;5029429;28;20053;-63
2023/06/20 00:27:42;;;;;;;41.53;37.65;;;17.80;1.00;;;;;;5030633;28;20420;-63
2023/06/20 00:30:08;;;;;;;41.97;38.28;;;17.70;99.90;;;;;;5043345;28;20487;-63
2023/06/20 00:32:34;;;;;;;42.45;38.63;;;17.90;99.90;;;;;;5029417;28;20144;-63
2023/06/20 00:34:59;;;;;;;43.05;39.20;;;17.80;1.00;;;;;;5030120;28;20510;-63
2023/06/20 00:37:26;;;;;;;46.60;42.28;;;17.80;99.90;;;;;;5029734;28;20047;-63
2023/06/20 00:39:52;;;;;;;40.78;37.15;;;17.90;99.90;;;;;;5029980;28;20037;-63
2023/06/20 00:42:25;;;;;;;41.70;37.92;;;17.70;1.00;;;;;;5028041;28;20530;-63
2023/06/20 00:44:52;;;;;;;41.42;37.63;;;17.70;99.90;;;;;;5030207;28;20106;-63
2023/06/20 00:47:18;;;;;;;40.70;37.20;;;17.80;1.00;;;;;;5029842;28;20076;-63
2023/06/20 00:49:46;;;;;;;42.10;38.10;;;17.70;99.90;;;;;;5027531;28;20030;-63
2023/06/20 00:52:17;;;;;;;41.40;37.70;;;17.60;99.90;;;;;;5029341;28;20068;-63
2023/06/20 00:54:44;;;;;;;42.08;38.20;;;17.60;55.20;;;;;;5027102;28;20037;-63
2023/06/20 00:57:12;;;;;;;42.55;38.72;;;17.60;1.00;;;;;;5030253;28;20534;-63
2023/06/20 00:59:38;;;;;;;42.05;38.15;;;17.70;1.00;;;;;;5025249;28;20411;-63
2023/06/20 01:02:04;;;;;;;42.97;39.17;;;17.70;1.00;;;;;;5028839;28;20171;-63
2023/06/20 01:04:31;;;;;;;43.80;39.78;;;17.70;99.90;;;;;;5028883;28;20128;-63
2023/06/20 01:07:07;;;;;;;42.50;38.72;;;17.70;99.90;;;;;;5028988;28;20046;-63
2023/06/20 01:09:54;;;;;;;43.50;39.70;;;17.60;99.90;;;;;;5034620;28;20042;-63
2023/06/20 01:12:33;;;;;;;43.42;39.58;;;17.70;99.90;;;;;;5022123;28;20082;-63
2023/06/20 01:15:15;;;;;;;45.22;40.97;;;17.70;99.90;;;;;;5022427;28;20110;-63
2023/06/20 01:17:52;;;;;;;43.65;39.80;;;17.70;99.90;;;;;;5047011;28;20045;-63
2023/06/20 01:20:30;;;;;;;43.60;39.67;;;17.80;99.90;;;;;;5035588;28;20049;-63
2023/06/20 01:23:08;;;;;;;43.90;39.67;;;17.60;99.90;;;;;;5036107;28;20053;-63
2023/06/20 01:25:54;;;;;;;44.08;39.85;;;17.70;99.90;;;;;;5047479;28;20041;-63
2023/06/20 01:28:54;;;;;;;43.75;39.95;;;17.70;99.90;;;;;;5034067;28;20393;-63
2023/06/20 01:31:27;;;;;;;45.42;40.95;;;17.60;1.00;;;;;;5026849;28;20046;-63
2023/06/20 01:34:18;;;;;;;44.95;40.95;;;17.80;1.00;;;;;;5048968;28;20470;-63
2023/06/20 01:36:52;;;;;;;44.20;40.20;;;17.70;99.90;;;;;;5033721;28;20087;-63
2023/06/20 01:39:30;;;;;;;46.45;42.33;;;17.60;99.90;;;;;;5030395;28;20503;-63
2023/06/20 01:42:01;;;;;;;46.67;42.38;;;17.60;1.00;;;;;;5032945;28;20054;-63
2023/06/20 01:44:30;;;;;;;46.22;42.03;;;17.60;1.00;;;;;;5034052;28;20050;-63
2023/06/20 01:46:58;;;;;;;46.80;42.50;;;17.50;87.10;;;;;;5037906;28;20484;-63
2023/06/20 01:49:26;;;;;;;45.75;41.47;;;17.50;99.90;;;;;;5027848;28;20046;-63
2023/06/20 01:51:57;;;;;;;45.47;41.28;;;17.70;99.90;;;;;;5023617;28;20555;-63
2023/06/20 01:54:28;;;;;;;46.00;41.83;;;17.40;1.00;;;;;;5033210;28;20049;-63
2023/06/20 01:56:57;;;;;;;46.10;41.90;;;17.30;99.90;;;;;;5040961;28;20049;-63
2023/06/20 01:59:24;;;;;;;46.33;41.80;;;17.50;99.90;;;;;;5028203;28;20112;-63
2023/06/20 02:01:52;;;;;;;45.08;40.85;;;17.30;1.00;;;;;;5021367;28;20048;-63
2023/06/20 02:04:18;;;;;;;46.20;42.10;;;17.30;99.90;;;;;;5033001;28;20562;-63
2023/06/20 02:06:46;;;;;;;46.70;42.05;;;17.20;99.90;;;;;;5031810;28;20045;-63
2023/06/20 02:09:13;;;;;;;45.47;41.33;;;17.50;1.00;;;;;;5024916;28;20053;-63
2023/06/20 02:11:39;;;;;;;45.55;41.22;;;17.30;99.90;;;;;;5031495;28;20086;-63
2023/06/20 02:14:06;;;;;;;45.50;41.20;;;17.40;99.90;;;;;;5032929;28;20084;-63
2023/06/20 02:16:34;;;;;;;46.40;41.97;;;17.30;1.00;;;;;;5032661;28;20531;-63
2023/06/20 02:19:00;;;;;;;48.25;43.75;;;17.30;99.90;;;;;;5032975;28;20041;-63
2023/06/20 02:21:31;;;;;;;48.58;43.88;;;17.10;99.90;;;;;;5031624;28;20117;-63
2023/06/20 02:23:57;;;;;;;47.85;43.35;;;17.30;1.00;;;;;;5031664;28;20045;-63
2023/06/20 02:26:28;;;;;;;47.30;42.67;;;17.10;99.90;;;;;;5046440;28;20045;-63
2023/06/20 02:28:57;;;;;;;47.78;43.08;;;17.30;99.90;;;;;;5018948;28;20033;-63
2023/06/20 02:31:27;;;;;;;46.00;41.75;;;17.10;99.90;;;;;;5019321;28;20044;-63
2023/06/20 02:33:56;;;;;;;48.50;43.67;;;17.30;99.90;;;;;;5023785;28;20092;-63
2023/06/20 02:36:26;;;;;;;47.50;43.30;;;17.10;99.90;;;;;;5031661;28;20125;-63
2023/06/20 02:38:56;;;;;;;46.92;42.13;;;17.40;99.90;;;;;;5032381;28;20499;-63
2023/06/20 02:41:23;;;;;;;46.30;42.10;;;17.40;99.90;;;;;;5031007;28;20592;-63
2023/06/20 02:43:49;;;;;;;45.67;41.38;;;17.40;99.90;;;;;;5031101;28;20041;-63
2023/06/20 02:46:22;;;;;;;48.20;43.88;;;17.40;99.90;;;;;;5027082;28;20049;-63
2023/06/20 02:49:09;;;;;;;47.20;42.58;;;17.10;99.90;;;;;;5017039;28;20510;-63
2023/06/20 02:51:42;;;;;;;47.25;43.00;;;17.40;99.90;;;;;;5021113;28;20402;-63
2023/06/20 02:54:19;;;;;;;46.22;41.92;;;17.20;99.90;;;;;;5025190;28;20050;-63
2023/06/20 02:56:48;;;;;;;45.97;41.60;;;17.30;99.90;;;;;;5033119;28;20046;-63
2023/06/20 02:59:15;;;;;;;48.33;43.90;;;17.40;99.90;;;;;;5025355;28;20423;-63
2023/06/20 03:01:45;;;;;;;47.25;42.90;;;17.40;99.90;;;;;;5022541;28;20052;-63
2023/06/20 03:04:13;;;;;;;47.97;43.42;;;17.40;99.90;;;;;;5031928;28;20099;-63
2023/06/20 03:06:43;;;;;;;47.50;42.90;;;17.30;99.90;;;;;;5025938;28;20434;-63
2023/06/20 03:09:09;;;;;;;48.80;44.10;;;17.20;99.90;;;;;;5053195;28;20384;-63
2023/06/20 03:11:35;;;;;;;47.45;42.90;;;17.10;99.90;;;;;;5033387;28;20032;-63
2023/06/20 03:14:01;;;;;;;48.95;44.15;;;17.30;99.90;;;;;;5035738;28;20044;-63
2023/06/20 03:16:27;;;;;;;48.20;43.63;;;17.30;99.90;;;;;;5044890;28;20037;-63
2023/06/20 03:18:54;;;;;;;46.80;42.40;;;17.40;99.90;;;;;;5030747;28;20115;-63
2023/06/20 03:21:21;;;;;;;47.55;42.85;;;17.50;99.90;;;;;;5028255;28;20116;-63
2023/06/20 03:23:46;;;;;;;48.95;44.13;;;17.10;99.90;;;;;;5036163;28;20048;-63
2023/06/20 03:26:12;;;;;;;47.63;43.00;;;17.40;99.90;;;;;;5048962;28;20044;-63
2023/06/20 03:28:37;;;;;;;47.85;43.38;;;17.60;99.90;;;;;;5031363;28;20044;-63
2023/06/20 03:31:03;;;;;;;52.00;44.88;;;17.20;99.90;;;;;;5060418;28;20499;-63
2023/06/20 03:33:28;;;;;;;50.33;45.45;;;17.20;99.90;;;;;;5027521;28;20091;-63
2023/06/20 03:35:54;;;;;;;49.92;45.22;;;17.50;99.90;;;;;;5031423;28;20042;-63
2023/06/20 03:38:20;;;;;;;49.50;44.80;;;17.60;99.90;;;;;;5066165;28;20109;-63
2023/06/20 03:40:45;;;;;;;49.60;45.05;;;17.60;99.90;;;;;;5046886;28;20053;-63
2023/06/20 03:43:11;;;;;;;51.17;46.10;;;17.60;99.90;;;;;;5029255;28;20088;-63
2023/06/20 03:45:36;;;;;;;49.92;45.17;;;17.40;99.90;;;;;;5028911;28;20029;-63
2023/06/20 03:48:02;;;;;;;49.20;44.53;;;17.40;99.90;;;;;;5025639;28;20061;-63
2023/06/20 03:50:28;;;;;;;48.67;44.10;;;17.50;99.90;;;;;;5018346;28;20033;-63
2023/06/20 03:52:53;;;;;;;48.88;44.38;;;17.50;99.90;;;;;;5030149;28;20040;-63
2023/06/20 03:55:19;;;;;;;45.45;41.28;;;17.80;99.90;;;;;;5032440;28;20045;-63
2023/06/20 03:57:44;;;;;;;46.15;41.80;;;17.90;99.90;;;;;;5031337;28;20029;-63
2023/06/20 04:00:12;;;;;;;46.03;41.75;;;17.60;99.90;;;;;;5027752;28;20491;-63
2023/06/20 04:02:45;;;;;;;44.40;40.28;;;17.90;99.90;;;;;;5028390;28;20053;-63
2023/06/20 04:05:12;;;;;;;40.85;37.25;;;17.70;99.90;;;;;;5031205;28;20037;-63
2023/06/20 04:07:42;;;;;;;43.40;39.33;;;18.30;99.90;;;;;;5032161;28;20033;-63
2023/06/20 04:10:10;;;;;;;40.08;36.50;;;18.00;99.90;;;;;;5035435;28;20073;-63
2023/06/20 04:12:37;;;;;;;39.83;36.13;;;18.10;99.90;;;;;;5025921;28;20108;-63
2023/06/20 04:15:03;;;;;;;37.58;34.22;;;18.00;99.90;;;;;;5030738;28;20049;-63
2023/06/20 04:17:28;;;;;;;36.00;32.75;;;18.00;99.90;;;;;;5031497;28;20373;-63
2023/06/20 04:19:54;;;;;;;35.42;32.28;;;18.10;99.90;;;;;;5024910;28;20094;-63
2023/06/20 04:22:19;;;;;;;35.08;32.00;;;18.10;99.90;;;;;;5030514;28;20044;-63
2023/06/20 04:24:46;;;;;;;36.08;32.90;;;18.20;1.00;;;;;;5037078;28;20041;-63
2023/06/20 04:27:12;;;;;;;36.35;33.15;;;18.20;1.00;;;;;;5030380;28;20038;-63
2023/06/20 04:29:37;;;;;;;34.35;31.42;;;18.20;90.80;;;;;;5018926;28;20040;-63
2023/06/20 04:32:03;;;;;;;36.42;33.22;;;18.20;99.90;;;;;;5043121;28;20034;-63
2023/06/20 04:34:29;;;;;;;35.17;31.73;;;18.30;99.90;;;;;;5022137;28;20033;-63
2023/06/20 04:36:54;;;;;;;35.50;32.30;;;18.30;1.00;;;;;;5029577;28;20037;-63
2023/06/20 04:39:20;;;;;;;37.13;33.92;;;18.40;99.90;;;;;;5024033;28;20045;-64
2023/06/20 04:41:45;;;;;;;37.40;34.10;;;18.40;1.00;;;;;;5028709;28;20092;-63
2023/06/20 04:44:11;;;;;;;37.45;34.17;;;18.40;99.90;;;;;;5028709;28;20045;-63
2023/06/20 04:46:36;;;;;;;33.20;30.30;;;18.30;96.80;;;;;;5028811;28;20065;-63
2023/06/20 04:49:02;;;;;;;35.58;32.38;;;18.50;1.00;;;;;;5029848;28;20122;-63
2023/06/20 04:51:27;;;;;;;36.38;33.28;;;18.50;99.90;;;;;;5035417;28;20127;-64
2023/06/20 04:53:53;;;;;;;35.53;32.50;;;18.40;99.90;;;;;;5024620;28;20050;-64
2023/06/20 04:56:20;;;;;;;36.65;33.50;;;18.50;99.90;;;;;;5010358;28;20069;-63
2023/06/20 04:58:46;;;;;;;37.22;34.03;;;18.60;99.90;;;;;;5023069;28;20499;-63
2023/06/20 05:01:14;;;;;;;37.78;34.47;;;18.60;49.70;;;;;;5009829;28;20057;-63
2023/06/20 05:03:42;;;;;;;35.67;32.58;;;18.60;1.00;;;;;;5012294;28;20041;-63
2023/06/20 05:06:07;;;;;;;38.17;34.88;;;18.70;1.00;;;;;;5031697;28;20053;-63
2023/06/20 05:08:33;;;;;;;37.50;34.22;;;18.70;1.00;;;;;;5023813;28;20160;-63
2023/06/20 05:10:58;;;;;;;35.42;32.22;;;18.70;99.90;;;;;;5023618;28;20396;-63
2023/06/20 05:13:24;;;;;;;35.45;32.45;;;18.50;99.90;;;;;;5028873;28;20041;-63
2023/06/20 05:15:49;;;;;;;34.47;31.35;;;18.60;99.90;;;;;;5028851;28;20251;-63
2023/06/20 05:18:15;;;;;;;37.60;34.17;;;18.60;99.90;;;;;;5026928;28;20037;-63
2023/06/20 05:20:40;;;;;;;37.10;33.88;;;18.80;99.90;;;;;;5025517;28;20488;-63
2023/06/20 05:23:06;;;;;;;38.40;34.92;;;18.80;99.90;;;;;;5030341;28;20041;-63
2023/06/20 05:25:32;;;;;;;38.47;35.05;;;18.70;99.90;;;;;;5038381;28;20046;-64
2023/06/20 05:27:57;;;;;;;37.58;34.22;;;18.70;99.90;;;;;;5027556;28;20507;-63
2023/06/20 05:30:23;;;;;;;36.95;33.63;;;18.80;96.60;;;;;;5026683;28;20092;-63
2023/06/20 05:32:49;;;;;;;38.70;35.28;;;18.80;56.90;;;;;;5022235;28;20037;-63
2023/06/20 05:35:15;;;;;;;40.20;36.55;;;18.70;54.30;;;;;;5029320;28;20048;-63
2023/06/20 05:37:40;;;;;;;39.53;36.13;;;19.20;54.10;;;;;;5030321;28;20033;-63
2023/06/20 05:40:06;;;;;;;39.42;35.88;;;18.80;53.50;;;;;;5026827;28;20037;-63
2023/06/20 05:42:32;;;;;;;39.10;35.85;;;18.70;65.80;;;;;;5027821;28;20050;-63
2023/06/20 05:44:58;;;;;;;40.20;36.60;;;18.90;60.90;;;;;;5042635;28;20194;-63
2023/06/20 05:47:23;;;;;;;39.05;35.78;;;18.80;38.90;;;;;;5027978;28;20041;-64
2023/06/20 05:49:49;;;;;;;38.97;35.78;;;18.80;65.40;;;;;;5030398;28;20400;-63
2023/06/20 05:52:15;;;;;;;38.95;35.33;;;18.80;56.40;;;;;;5023080;28;21912;-63
2023/06/20 05:54:42;;;;;;;37.15;34.08;;;18.90;57.60;;;;;;5049446;28;20447;-63
2023/06/20 05:57:08;;;;;;;38.00;34.72;;;18.90;24.80;;;;;;5024918;28;20041;-63
2023/06/20 05:59:34;;;;;;;38.55;35.35;;;19.00;1.00;;;;;;5028870;28;20434;-63
2023/06/20 06:02:00;;;;;;;38.45;35.05;;;19.00;1.00;;;;;;5036119;28;20356;-63
2023/06/20 06:04:25;;;;;;;38.40;35.03;;;19.10;1.00;;;;;;5047979;28;20033;-63
2023/06/20 06:06:51;;;;;;;37.25;34.05;;;19.20;1.00;;;;;;5030668;28;20145;-63
2023/06/20 06:09:17;;;;;;;38.63;35.53;;;19.10;1.00;;;;;;5040382;28;20037;-63
2023/06/20 06:11:43;;;;;;;38.30;35.00;;;19.10;99.90;;;;;;5019659;28;20033;-63
2023/06/20 06:14:09;;;;;;;37.38;33.88;;;19.30;99.90;;;;;;5029502;28;20111;-65
2023/06/20 06:16:35;;;;;;;37.17;33.78;;;19.30;99.90;;;;;;5041499;28;20556;-64
2023/06/20 06:19:00;;;;;;;35.83;32.83;;;19.30;99.90;;;;;;5026658;28;20041;-64
2023/06/20 06:21:26;;;;;;;35.72;32.75;;;19.40;99.90;;;;;;5029485;28;20041;-64
2023/06/20 06:23:53;;;;;;;34.38;31.58;;;19.50;99.90;;;;;;5028311;28;20556;-64
2023/06/20 06:26:18;;;;;;;34.22;31.20;;;19.60;72.00;;;;;;5031854;28;20037;-64
2023/06/20 06:28:44;;;;;;;36.10;32.83;;;19.70;1.00;;;;;;5028839;28;20488;-64
2023/06/20 06:31:13;;;;;;;31.80;29.10;;;19.80;1.00;;;;;;5029285;28;20075;-63
2023/06/20 06:33:40;;;;;;;31.30;28.38;;;20.10;1.00;;;;;;5027338;28;20033;-64
2023/06/20 06:36:06;;;;;;;29.92;27.35;;;20.30;99.90;;;;;;5029955;28;20471;-64
2023/06/20 06:38:32;;;;;;;32.33;29.50;;;20.20;99.90;;;;;;5020354;28;20049;-63
2023/06/20 06:40:59;;;;;;;31.70;29.00;;;20.40;97.60;;;;;;5039039;28;20404;-66
2023/06/20 06:43:25;;;;;;;30.67;27.67;;;20.50;17.50;;;;;;5014960;28;20129;-66
2023/06/20 06:45:51;;;;;;;33.30;26.90;;;20.70;1.00;;;;;;5023488;28;20041;-66
2023/06/20 06:48:17;;;;;;;29.10;26.33;;;20.90;1.00;;;;;;5053415;28;20050;-66
2023/06/20 06:50:43;;;;;;;28.80;26.20;;;21.00;99.90;;;;;;5019763;28;20037;-66
2023/06/20 06:53:12;;;;;;;30.52;27.45;;;20.90;99.90;;;;;;5021968;28;20061;-66
2023/06/20 06:55:38;;;;;;;32.50;29.50;;;21.10;99.90;;;;;;5027671;28;20037;-66
2023/06/20 06:58:03;;;;;;;29.88;27.13;;;21.10;99.90;;;;;;5027748;28;20128;-66
2023/06/20 07:00:29;;;;;;;32.25;29.25;;;21.20;99.90;;;;;;5028248;28;20507;-66
2023/06/20 07:02:55;;;;;;;28.20;25.88;;;21.30;94.10;;;;;;5025429;28;20052;-66
2023/06/20 07:05:21;;;;;;;29.05;26.50;;;21.50;73.30;;;;;;5033338;28;20033;-66
2023/06/20 07:07:46;;;;;;;27.52;25.02;;;21.80;58.10;;;;;;5041330;28;20491;-67
2023/06/20 07:10:12;;;;;;;28.20;25.60;;;22.20;48.10;;;;;;5018616;28;20048;-68
2023/06/20 07:12:38;;;;;;;28.00;25.50;;;22.30;1.00;;;;;;5019416;28;20099;-66
2023/06/20 07:15:04;;;;;;;26.05;23.70;;;22.40;1.00;;;;;;5030410;28;20041;-66
2023/06/20 07:17:29;;;;;;;28.55;25.88;;;22.30;1.00;;;;;;5050143;28;20044;-66
2023/06/20 07:19:55;;;;;;;30.90;28.15;;;22.10;1.00;;;;;;5039861;28;20564;-66
2023/06/20 07:22:21;;;;;;;27.70;25.08;;;22.10;1.00;;;;;;5017047;28;20053;-66
2023/06/20 07:24:47;;;;;;;30.38;27.67;;;22.00;1.00;;;;;;5043830;28;20100;-66
2023/06/20 07:27:12;;;;;;;30.48;27.98;;;22.00;1.00;;;;;;5059940;28;20061;-65
2023/06/20 07:29:38;;;;;;;26.27;24.15;;;22.00;1.00;;;;;;5025716;28;20043;-66
2023/06/20 07:32:04;;;;;;;30.20;27.40;;;21.90;1.00;;;;;;5057888;28;20494;-66
2023/06/20 07:34:29;;;;;;;31.75;28.42;;;21.80;1.00;;;;;;5043182;28;20137;-66
2023/06/20 07:36:56;;;;;;;30.77;27.83;;;21.80;99.90;;;;;;5029946;28;20045;-66
2023/06/20 07:39:21;;;;;;;30.13;27.50;;;21.70;1.00;;;;;;5030554;28;20120;-66
2023/06/20 07:41:47;;;;;;;29.60;26.92;;;21.70;1.00;;;;;;5034886;28;20140;-66
2023/06/20 07:44:12;;;;;;;30.65;28.08;;;22.10;1.00;;;;;;5030393;28;20045;-66
2023/06/20 07:46:39;;;;;;;31.63;28.92;;;21.80;1.00;;;;;;5029898;28;20025;-66
2023/06/20 07:49:05;;;;;;;28.63;25.95;;;22.00;1.00;;;;;;5031772;28;20549;-66
2023/06/20 07:51:33;;;;;;;31.50;28.80;;;22.20;1.00;;;;;;5029520;28;20040;-66
2023/06/20 07:53:59;;;;;;;33.15;30.15;;;22.40;1.00;;;;;;5023104;28;20037;-67
2023/06/20 07:56:25;;;;;;;30.83;27.73;;;22.70;1.00;;;;;;5050752;28;20038;-65
2023/06/20 07:58:51;;;;;;;29.95;27.55;;;22.80;1.00;;;;;;5034920;28;20088;-65
2023/06/20 08:01:17;;;;;;;30.90;28.20;;;22.90;1.00;;;;;;5029300;28;20060;-65
2023/06/20 08:03:43;;;;;;;29.02;26.33;;;22.90;99.90;;;;;;5030998;28;20514;-66
2023/06/20 08:06:12;;;;;;;29.85;27.00;;;23.10;1.00;;;;;;5030023;28;20041;-66
2023/06/20 08:08:38;;;;;;;29.75;27.05;;;23.30;99.90;;;;;;5030352;28;20454;-66
2023/06/20 08:11:04;;;;;;;29.83;27.25;;;23.50;99.90;;;;;;5030943;28;20041;-66
2023/06/20 08:13:30;;;;;;;31.77;28.85;;;23.60;99.90;;;;;;5057266;28;20120;-66
2023/06/20 08:15:56;;;;;;;30.27;27.60;;;23.70;99.90;;;;;;5023541;28;20041;-66
2023/06/20 08:18:21;;;;;;;28.35;25.95;;;23.80;99.90;;;;;;5033381;28;20079;-65
2023/06/20 08:20:47;;;;;;;33.08;29.88;;;23.90;99.90;;;;;;5030558;28;20037;-65
2023/06/20 08:23:14;;;;;;;31.90;29.20;;;23.90;99.90;;;;;;5030561;28;20048;-65
2023/06/20 08:25:39;;;;;;;30.17;27.30;;;24.10;99.90;;;;;;5030710;28;20044;-65
2023/06/20 08:28:05;;;;;;;27.60;23.55;;;24.30;99.90;;;;;;5035657;28;20395;-65
2023/06/20 08:30:30;;;;;;;29.00;26.40;;;24.40;99.90;;;;;;5029003;28;20033;-65
2023/06/20 08:32:56;;;;;;;30.80;28.20;;;24.20;99.90;;;;;;5033405;28;20487;-66
2023/06/20 08:35:21;;;;;;;28.33;26.10;;;24.20;99.90;;;;;;5033475;28;20124;-66
2023/06/20 08:37:48;;;;;;;28.70;26.40;;;24.20;99.90;;;;;;5027991;28;20044;-65
2023/06/20 08:40:14;;;;;;;29.58;27.15;;;24.00;99.90;;;;;;5035470;28;20112;-65
2023/06/20 08:42:42;;;;;;;31.02;28.17;;;24.40;99.90;;;;;;5028720;28;20076;-65
2023/06/20 08:45:08;;;;;;;30.00;27.52;;;24.10;99.90;;;;;;5026740;28;20606;-65
2023/06/20 08:47:34;;;;;;;29.88;27.05;;;24.20;99.90;;;;;;5024356;28;20837;-65
2023/06/20 08:50:00;;;;;;;29.08;26.50;;;24.40;99.90;;;;;;5024373;28;20049;-65
2023/06/20 08:52:30;;;;;;;31.30;28.45;;;24.30;99.90;;;;;;5025135;28;20029;-66
2023/06/20 08:54:56;;;;;;;28.13;25.83;;;24.20;99.90;;;;;;5025453;28;20033;-65
2023/06/20 08:57:22;;;;;;;30.73;28.17;;;24.10;99.90;;;;;;5028381;28;20521;-65
2023/06/20 08:59:49;;;;;;;30.20;27.70;;;24.00;99.90;;;;;;5029948;28;20053;-65
2023/06/20 09:02:16;;;;;;;28.83;26.17;;;24.20;99.90;;;;;;5027257;28;20045;-67
2023/06/20 09:04:41;;;;;;;30.52;27.88;;;24.20;99.90;;;;;;5024552;28;20148;-65
2023/06/20 09:07:17;;;;;;;31.60;28.83;;;24.30;99.90;;;;;;5038530;28;20128;-65
2023/06/20 09:09:43;;;;;;;32.33;29.48;;;24.40;99.90;;;;;;5025975;28;21578;-65
2023/06/20 09:12:09;;;;;;;33.03;30.33;;;24.40;99.90;;;;;;5025992;28;20067;-65
2023/06/20 09:14:34;;;;;;;33.35;30.38;;;24.30;99.90;;;;;;5029116;28;20709;-65
2023/06/20 09:17:00;;;;;;;33.08;30.17;;;24.40;99.90;;;;;;5031239;28;20060;-66
2023/06/20 09:19:26;;;;;;;30.55;28.15;;;24.40;99.90;;;;;;5028437;28;20050;-66
2023/06/20 09:22:02;;;;;;;30.42;27.83;;;24.30;99.90;;;;;;5027632;28;20512;-65
2023/06/20 09:24:27;;;;;;;31.20;28.60;;;24.40;99.90;;;;;;5010014;28;20046;-66
2023/06/20 09:26:53;;;;;;;31.00;28.35;;;24.60;99.90;;;;;;5033356;28;20041;-65
2023/06/20 09:29:19;;;;;;;31.42;28.67;;;24.70;99.90;;;;;;5029922;28;20033;-66
2023/06/20 09:31:49;;;;;;;28.17;25.73;;;24.90;99.90;;;;;;5024595;28;20503;-66
2023/06/20 09:34:19;;;;;;;31.75;29.25;;;25.00;99.90;;;;;;5037064;28;20090;-66
2023/06/20 09:36:48;;;;;;;34.28;31.48;;;25.00;99.90;;;;;;5035923;28;20515;-65
2023/06/20 09:39:17;;;;;;;36.72;33.35;;;25.20;99.90;;;;;;5039621;28;20056;-66
2023/06/20 09:41:53;;;;;;;36.50;33.58;;;25.20;99.90;;;;;;5029034;28;20132;-66
2023/06/20 09:44:20;;;;;;;38.75;35.55;;;25.20;99.90;;;;;;5028415;28;20119;-65
2023/06/20 09:46:46;;;;;;;38.55;35.28;;;25.30;99.90;;;;;;5030558;28;20052;-65
2023/06/20 09:49:15;;;;;;;44.90;41.13;;;25.30;99.90;;;;;;5033918;28;20503;-66
2023/06/20 09:51:46;;;;;;;76.10;69.80;;;25.10;99.90;;;;;;5031827;28;20335;-65
2023/06/20 09:54:13;;;;;;;71.28;65.15;;;25.10;99.90;;;;;;5029219;28;20045;-65
2023/06/20 09:56:54;;;;;;;69.00;63.38;;;25.30;99.90;;;;;;5036135;28;20042;-66
2023/06/20 09:59:21;;;;;;;71.28;65.50;;;25.50;99.90;;;;;;5025447;28;21398;-66
2023/06/20 10:01:48;;;;;;;70.45;64.35;;;25.40;99.90;;;;;;5027504;28;20045;-66
2023/06/20 10:04:16;;;;;;;69.55;63.95;;;25.50;99.90;;;;;;5031566;28;20037;-66
2023/06/20 10:06:41;;;;;;;62.00;57.05;;;25.60;99.90;;;;;;5031026;28;20041;-66
2023/06/20 10:09:08;;;;;;;67.47;62.05;;;25.50;99.90;;;;;;5028798;28;20415;-66
2023/06/20 10:11:41;;;;;;;61.80;56.80;;;25.80;99.90;;;;;;5026354;28;20034;-66
2023/06/20 10:14:08;;;;;;;68.00;62.25;;;25.90;99.90;;;;;;5044097;28;20555;-67
2023/06/20 10:16:34;;;;;;;59.45;54.42;;;25.90;99.90;;;;;;5053625;28;20095;-66
2023/06/20 10:19:16;;;;;;;55.95;51.22;;;26.10;99.90;;;;;;5030508;28;20044;-66
2023/06/20 10:21:59;;;;;;;59.00;54.33;;;26.20;99.90;;;;;;5026064;28;20082;-66
2023/06/20 10:24:27;;;;;;;56.63;52.03;;;26.30;99.90;;;;;;5031714;28;20071;-66
2023/06/20 10:27:00;;;;;;;51.83;47.83;;;26.40;99.90;;;;;;5036020;28;20051;-66
2023/06/20 10:29:26;;;;;;;46.85;43.35;;;26.60;99.90;;;;;;5028967;28;20399;-66
2023/06/20 10:32:06;;;;;;;48.40;44.58;;;26.50;96.30;;;;;;5043088;28;20438;-67
2023/06/20 10:34:40;;;;;;;47.50;44.00;;;26.50;94.00;;;;;;5021773;28;20833;-66
2023/06/20 10:37:33;;;;;;;38.45;35.40;;;26.60;96.00;;;;;;5026555;28;20038;-66
2023/06/20 10:39:58;;;;;;;51.65;47.78;;;26.60;80.90;;;;;;5029209;28;20060;-66
2023/06/20 10:42:43;;;;;;;56.35;51.97;;;26.50;81.20;;;;;;5028575;28;20053;-66
2023/06/20 10:45:29;;;;;;;57.08;52.70;;;26.60;77.50;;;;;;5018302;28;20068;-66
2023/06/20 10:48:01;;;;;;;72.95;67.40;;;26.50;61.60;;;;;;5025014;28;20431;-66
2023/06/20 10:50:26;;;;;;;66.63;61.97;;;26.60;59.40;;;;;;5031424;28;20845;-66
2023/06/20 10:52:52;;;;;;;64.47;59.67;;;26.80;52.50;;;;;;5023109;28;20038;-66
2023/06/20 10:55:23;;;;;;;52.28;48.50;;;26.80;48.60;;;;;;5026681;28;20047;-65
2023/06/20 10:57:50;;;;;;;75.00;69.65;;;26.90;35.30;;;;;;5029795;28;20412;-65
2023/06/20 11:00:18;;;;;;;67.00;62.10;;;26.90;34.00;;;;;;5026294;28;20172;-66
2023/06/20 11:02:54;;;;;;;81.82;76.13;;;27.00;37.00;;;;;;5011542;28;20115;-66
2023/06/20 11:05:27;;;;;;;47.42;44.00;;;27.10;37.80;;;;;;5023839;28;20065;-66
2023/06/20 11:08:05;;;;;;;46.08;42.17;;;27.20;28.00;;;;;;5030859;28;20041;-65
2023/06/20 11:10:32;;;;;;;34.58;31.27;;;27.20;26.10;;;;;;5028941;28;20041;-65
2023/06/20 11:13:00;;;;;;;49.95;46.13;;;27.20;10.00;;;;;;5012655;28;20165;-66
2023/06/20 11:15:33;;;;;;;22.75;20.75;;;27.20;10.70;;;;;;5028657;28;20049;-65
2023/06/20 11:18:04;;;;;;;30.48;27.35;;;27.20;5.40;;;;;;5032023;28;20049;-65
2023/06/20 11:20:35;;;;;;;29.25;27.10;;;27.30;1.00;;;;;;5023172;28;20464;-65
2023/06/20 11:23:06;;;;;;;45.65;42.05;;;27.40;1.00;;;;;;5022132;28;20041;-64
2023/06/20 11:25:34;;;;;;;29.58;27.30;;;27.50;8.10;;;;;;5031510;28;20284;-65
2023/06/20 11:28:04;;;;;;;29.52;27.10;;;27.50;1.00;;;;;;5031405;28;20037;-65
2023/06/20 11:30:31;;;;;;;24.08;22.17;;;27.40;1.00;;;;;;5029900;28;20045;-65
2023/06/20 11:33:06;;;;;;;17.13;14.68;;;27.30;1.00;;;;;;5063042;28;20038;-66
2023/06/20 11:35:38;;;;;;;;;;;27.20;1.00;;;;;;5030402;28;20506;-66
2023/06/20 11:38:04;;;;;;;16.48;13.63;;;27.10;1.00;;;;;;5030957;28;19917;-66
2023/06/20 11:40:30;;;;;;;12.65;9.75;;;27.20;1.00;;;;;;5029728;28;20029;-65
2023/06/20 11:42:55;;;;;;;12.68;10.63;;;27.20;1.00;;;;;;5015644;28;20057;-65
2023/06/20 11:45:25;;;;;;;16.13;14.73;;;27.40;1.00;;;;;;5030590;28;20423;-65
2023/06/20 11:48:09;;;;;;;10.73;9.63;;;27.50;1.00;;;;;;5029843;28;20044;-66
2023/06/20 11:50:35;;;;;;;11.73;8.98;;;27.60;1.00;;;;;;5050209;28;20129;-66
2023/06/20 11:53:03;;;;;;;15.40;10.00;;;27.70;1.00;;;;;;5023807;28;20128;-66
2023/06/20 11:55:48;;;;;;;13.18;9.23;;;27.60;1.00;;;;;;5027959;28;20112;-67
2023/06/20 11:58:18;;;;;;;11.18;7.40;;;27.60;1.00;;;;;;5019161;28;20069;-66
2023/06/20 12:00:48;;;;;;;7.88;6.97;;;27.70;1.00;;;;;;5038401;28;20084;-66
2023/06/20 12:03:21;;;;;;;8.88;7.80;;;27.70;1.00;;;;;;5025942;28;20092;-67
2023/06/20 12:05:47;;;;;;;8.02;6.90;;;27.70;1.00;;;;;;5013134;28;20041;-67
2023/06/20 12:08:13;;;;;;;8.07;5.90;;;27.80;1.00;;;;;;5030851;28;20079;-66
2023/06/20 12:10:58;;;;;;;8.93;6.65;;;27.70;1.00;;;;;;5044653;28;20037;-66
2023/06/20 12:13:23;;;;;;;7.40;6.70;;;27.80;1.00;;;;;;5029204;28;20565;-66
2023/06/20 12:15:49;;;;;;;9.25;6.63;;;27.90;1.00;;;;;;5029235;28;20095;-66
2023/06/20 12:18:14;;;;;;;9.82;7.32;;;27.90;1.00;;;;;;5030487;28;20049;-66
2023/06/20 12:20:40;;;;;;;7.25;6.05;;;28.10;1.00;;;;;;5027540;28;20116;-67
2023/06/20 12:23:05;;;;;;;6.15;5.47;;;28.20;1.00;;;;;;5034420;28;20037;-66
2023/06/20 12:25:32;;;;;;;8.63;6.53;;;28.10;1.00;;;;;;5026483;28;20319;-66
2023/06/20 12:27:58;;;;;;;8.70;7.00;;;28.10;1.00;;;;;;5029838;28;20099;-66
2023/06/20 12:30:25;;;;;;;6.57;5.88;;;28.10;1.00;;;;;;5027971;28;20051;-66
2023/06/20 12:32:51;;;;;;;7.72;6.13;;;28.10;1.00;;;;;;5029090;28;20041;-66
2023/06/20 12:35:17;;;;;;;10.40;7.25;;;28.20;1.00;;;;;;5029606;28;20095;-66